METAR Data
IDs: Format: Raw Decoded Include TAF

Data at: 0239 UTC 25 Jan 2020

KMQY 250156Z 27013G20KT 10SM -RA BKN020 OVC028 06/03 A3000 RMK AO2 RAB52 SLP168 P0002 T00560028